Time;durP1;ratioP1;P1;durP2;ratioP2;P2;SDS_P1;SDS_P2;PMS_P1;PMS_P2;Temp;Humidity;BMP_temperature;BMP_pressure;BME280_temperature;BME280_humidity;BME280_pressure;Samples;Min_cycle;Max_cycle;Signal;HPM_P1;HPM_P2
2022/10/08 00:01:04;;;;;;;6.57;2.50;;;13.00;99.90;;;;;;5064773;28;20032;-77
2022/10/08 00:03:32;;;;;;;3.38;1.70;;;13.00;99.90;;;;;;5064925;28;20040;-76
2022/10/08 00:05:59;;;;;;;3.20;1.42;;;13.00;99.90;;;;;;5065617;28;20037;-77
2022/10/08 00:08:26;;;;;;;8.85;2.63;;;13.00;99.90;;;;;;5065022;28;20051;-77
2022/10/08 00:10:57;;;;;;;6.13;2.10;;;13.00;99.90;;;;;;5063236;28;20044;-77
2022/10/08 00:13:25;;;;;;;2.53;1.63;;;13.00;99.90;;;;;;5069600;28;20044;-78
2022/10/08 00:15:51;;;;;;;6.57;2.28;;;13.00;99.90;;;;;;5079536;28;20047;-77
2022/10/08 00:18:18;;;;;;;2.80;2.03;;;13.00;99.90;;;;;;5063522;28;20105;-78
2022/10/08 00:20:44;;;;;;;3.17;1.52;;;13.00;99.90;;;;;;5077709;28;20051;-77
2022/10/08 00:23:09;;;;;;;2.28;1.75;;;13.00;99.90;;;;;;5084518;28;20509;-77
2022/10/08 00:25:42;;;;;;;3.95;2.72;;;13.00;99.90;;;;;;5072253;28;20037;-78
2022/10/08 00:28:09;;;;;;;2.80;1.55;;;13.00;99.90;;;;;;5065359;28;20037;-79
2022/10/08 00:30:38;;;;;;;2.85;1.52;;;13.00;99.90;;;;;;5066127;28;20036;-77
2022/10/08 00:33:04;;;;;;;4.78;1.73;;;13.00;99.90;;;;;;5082540;28;20047;-78
2022/10/08 00:35:29;;;;;;;4.53;2.45;;;13.00;99.90;;;;;;5085012;28;20084;-77
2022/10/08 00:37:55;;;;;;;4.05;2.30;;;12.90;99.90;;;;;;5083912;28;20469;-79
2022/10/08 00:40:20;;;;;;;10.02;3.22;;;12.90;99.90;;;;;;5084300;28;20047;-77
2022/10/08 00:42:46;;;;;;;3.47;1.35;;;12.90;99.90;;;;;;5079762;28;20077;-77
2022/10/08 00:45:12;;;;;;;2.92;1.38;;;12.90;99.90;;;;;;5084382;28;20428;-79
2022/10/08 00:47:46;;;;;;;3.30;2.10;;;12.90;99.90;;;;;;5083487;28;20475;-77
2022/10/08 00:50:15;;;;;;;2.38;1.30;;;12.90;99.90;;;;;;5084445;28;20104;-77
2022/10/08 00:52:51;;;;;;;12.27;2.38;;;12.90;99.90;;;;;;5084008;28;20036;-77
2022/10/08 00:55:20;;;;;;;2.25;1.83;;;12.90;99.90;;;;;;5066233;28;20083;-77
2022/10/08 00:57:46;;;;;;;3.08;1.65;;;12.90;99.90;;;;;;5084343;28;20051;-77
2022/10/08 01:00:19;;;;;;;1.65;1.20;;;12.80;99.90;;;;;;5065764;28;20049;-77
2022/10/08 01:02:44;;;;;;;2.95;1.95;;;12.80;99.90;;;;;;5068653;28;20068;-77
2022/10/08 01:05:13;;;;;;;2.10;1.58;;;12.80;99.90;;;;;;5052884;28;20076;-77
2022/10/08 01:07:58;;;;;;;1.33;1.23;;;12.80;99.90;;;;;;5158918;22;20080;-80
2022/10/08 01:10:27;;;;;;;5.05;1.95;;;12.70;99.90;;;;;;5023268;28;20410;-80
2022/10/08 01:13:17;;;;;;;4.10;1.58;;;12.70;99.90;;;;;;5005265;28;20133;-79
2022/10/08 01:16:16;;;;;;;4.13;1.58;;;12.70;99.90;;;;;;5007581;28;20081;-79
2022/10/08 01:18:52;;;;;;;4.22;1.25;;;12.60;99.90;;;;;;5022908;28;20139;-79
2022/10/08 01:21:32;;;;;;;4.10;1.30;;;12.60;99.90;;;;;;4990375;28;20065;-78
2022/10/08 01:27:44;;;;;;;7.10;1.58;;;12.60;99.90;;;;;;5007605;28;20092;-80
2022/10/08 01:30:13;;;;;;;1.95;0.85;;;12.50;99.90;;;;;;5007562;28;20088;-79
2022/10/08 01:33:11;;;;;;;8.70;1.45;;;12.50;99.90;;;;;;5025740;28;20073;-79
2022/10/08 01:35:43;;;;;;;1.85;1.40;;;12.50;99.90;;;;;;5014300;28;20053;-80
2022/10/08 01:38:14;;;;;;;2.63;1.25;;;12.50;99.90;;;;;;5007677;28;20038;-79
2022/10/08 01:40:42;;;;;;;6.28;1.85;;;12.50;99.90;;;;;;5007229;28;20061;-79
2022/10/08 01:43:12;;;;;;;3.55;1.48;;;12.40;99.90;;;;;;5007641;28;20038;-80
2022/10/08 01:45:51;;;;;;;2.17;1.88;;;12.40;99.90;;;;;;5007266;28;20050;-80
2022/10/08 01:48:26;;;;;;;2.65;1.95;;;12.40;99.90;;;;;;5006581;28;20423;-78
2022/10/08 01:51:06;;;;;;;1.52;1.40;;;12.40;99.90;;;;;;5006891;28;20613;-78
2022/10/08 01:53:39;;;;;;;3.33;1.50;;;12.30;99.90;;;;;;5006826;28;20046;-78
2022/10/08 01:56:09;;;;;;;1.40;0.80;;;12.30;99.90;;;;;;5007348;28;20121;-78
2022/10/08 01:58:54;;;;;;;2.60;1.35;;;12.20;99.90;;;;;;5007273;28;20133;-77
2022/10/08 02:01:49;;;;;;;2.17;1.98;;;12.20;99.90;;;;;;5009659;28;20141;-77
2022/10/08 02:04:32;;;;;;;5.60;1.83;;;12.10;99.90;;;;;;5017026;28;20049;-77
2022/10/08 02:06:59;;;;;;;;;;;12.00;99.90;;;;;;5020713;28;20412;-78
2022/10/08 02:09:26;;;;;;;1.48;0.80;;;12.00;99.90;;;;;;5013468;28;19974;-77
2022/10/08 02:11:52;;;;;;;4.10;1.73;;;11.90;99.90;;;;;;4986706;28;20046;-78
2022/10/08 02:14:24;;;;;;;1.08;0.90;;;11.90;99.90;;;;;;5006939;28;20046;-77
2022/10/08 02:17:07;;;;;;;2.03;1.50;;;11.90;99.90;;;;;;5018799;28;20041;-77
2022/10/08 02:20:08;;;;;;;2.00;1.13;;;11.80;99.90;;;;;;5024651;28;20045;-77
2022/10/08 02:22:44;;;;;;;2.83;1.60;;;11.80;99.90;;;;;;5007297;28;20092;-77
2022/10/08 02:25:36;;;;;;;4.47;1.30;;;11.70;99.90;;;;;;4998833;28;20044;-77
2022/10/08 02:28:22;;;;;;;3.45;1.65;;;11.70;99.90;;;;;;5026618;28;20045;-80
2022/10/08 02:30:54;;;;;;;4.82;2.15;;;11.70;99.90;;;;;;5015418;28;20132;-78
2022/10/08 02:33:32;;;;;;;4.03;1.67;;;11.70;99.90;;;;;;5006832;28;20084;-78
2022/10/08 02:35:59;;;;;;;5.13;1.80;;;11.70;99.90;;;;;;5026284;28;20091;-77
2022/10/08 02:38:43;;;;;;;6.25;2.30;;;11.70;99.90;;;;;;5026298;28;20121;-77
2022/10/08 02:41:11;;;;;;;2.28;1.20;;;11.70;99.90;;;;;;5025920;28;20060;-77
2022/10/08 02:43:45;;;;;;;8.65;2.17;;;11.70;99.90;;;;;;5026121;28;20056;-79
2022/10/08 02:46:18;;;;;;;4.35;1.52;;;11.70;99.90;;;;;;5024853;28;20069;-77
2022/10/08 02:48:59;;;;;;;7.70;2.17;;;11.80;99.90;;;;;;5010706;28;20423;-77
2022/10/08 02:51:27;;;;;;;5.35;1.10;;;11.70;99.90;;;;;;5018507;28;20042;-77
2022/10/08 02:53:52;;;;;;;7.03;1.58;;;11.70;99.90;;;;;;5005712;28;20050;-77
2022/10/08 02:56:28;;;;;;;3.20;1.73;;;11.70;99.90;;;;;;5006257;28;20038;-78
2022/10/08 02:58:54;;;;;;;4.93;2.20;;;11.70;99.90;;;;;;4988375;28;20124;-78
2022/10/08 03:01:33;;;;;;;6.47;2.47;;;11.70;99.90;;;;;;5006013;28;20592;-78
2022/10/08 03:04:32;;;;;;;3.10;1.67;;;11.70;99.90;;;;;;5012356;28;20053;-77
2022/10/08 03:06:59;;;;;;;5.13;2.28;;;11.70;99.90;;;;;;5013092;28;20042;-77
2022/10/08 03:09:31;;;;;;;7.97;1.40;;;11.70;99.90;;;;;;5025342;28;20414;-78
2022/10/08 03:11:58;;;;;;;2.88;1.70;;;11.70;99.90;;;;;;5026265;28;20053;-77
2022/10/08 03:14:24;;;;;;;5.03;1.73;;;11.70;99.90;;;;;;5025892;28;20061;-78
2022/10/08 03:16:50;;;;;;;2.15;1.42;;;11.70;99.90;;;;;;5024316;28;20037;-77
2022/10/08 03:19:17;;;;;;;4.03;1.30;;;11.70;99.90;;;;;;5026051;28;20052;-77
2022/10/08 03:21:45;;;;;;;2.65;1.63;;;11.60;99.90;;;;;;5024629;28;20048;-78
2022/10/08 03:24:12;;;;;;;5.00;1.45;;;11.60;99.90;;;;;;5014927;28;20058;-76
2022/10/08 03:26:38;;;;;;;2.50;1.45;;;11.60;99.90;;;;;;5017317;28;20044;-79
2022/10/08 03:29:04;;;;;;;3.15;1.48;;;11.50;99.90;;;;;;5016675;28;20048;-77
2022/10/08 03:31:30;;;;;;;1.27;1.05;;;11.50;99.90;;;;;;5024387;28;20034;-78
2022/10/08 03:33:56;;;;;;;5.32;1.60;;;11.50;99.90;;;;;;5010666;28;20049;-77
2022/10/08 03:36:23;;;;;;;9.73;2.38;;;11.40;99.90;;;;;;5021936;28;20507;-77
2022/10/08 03:38:49;;;;;;;9.63;1.73;;;11.40;99.90;;;;;;5024048;28;20411;-77
2022/10/08 03:41:15;;;;;;;3.00;1.25;;;11.40;99.90;;;;;;5005955;28;20046;-77
2022/10/08 03:43:41;;;;;;;3.50;1.67;;;11.40;99.90;;;;;;5005349;28;20057;-77
2022/10/08 03:46:08;;;;;;;6.22;1.42;;;11.50;99.90;;;;;;5005506;28;20057;-77
2022/10/08 03:48:34;;;;;;;6.30;2.17;;;11.40;99.90;;;;;;5018574;28;20120;-78
2022/10/08 03:51:03;;;;;;;3.15;1.25;;;11.40;99.90;;;;;;5021471;28;20053;-77
2022/10/08 03:53:34;;;;;;;4.47;2.08;;;11.40;99.90;;;;;;5025364;28;20045;-77
2022/10/08 03:56:05;;;;;;;2.65;1.30;;;11.40;99.90;;;;;;5024221;28;20045;-77
2022/10/08 03:58:31;;;;;;;8.07;2.38;;;11.30;99.90;;;;;;5024341;28;20044;-76
2022/10/08 04:00:58;;;;;;;3.40;1.85;;;11.30;99.90;;;;;;5025268;28;20045;-77
2022/10/08 04:03:25;;;;;;;3.15;1.60;;;11.20;99.90;;;;;;5009124;28;20092;-77
2022/10/08 04:05:50;;;;;;;3.03;1.55;;;11.20;99.90;;;;;;5004614;28;20511;-77
2022/10/08 04:08:16;;;;;;;8.95;2.60;;;11.10;99.90;;;;;;5005100;28;20084;-78
2022/10/08 04:10:42;;;;;;;1.67;1.30;;;11.10;99.90;;;;;;5004549;28;20519;-77
2022/10/08 04:13:07;;;;;;;3.53;1.40;;;11.00;99.90;;;;;;5004905;28;20053;-77
2022/10/08 04:15:33;;;;;;;6.05;1.65;;;11.00;99.90;;;;;;5004401;28;20046;-78
2022/10/08 04:17:59;;;;;;;2.30;1.55;;;10.90;99.90;;;;;;5004419;28;20042;-77
2022/10/08 04:20:24;;;;;;;2.92;1.35;;;10.90;99.90;;;;;;5003685;28;20492;-78
2022/10/08 04:22:50;;;;;;;6.10;1.40;;;10.90;99.90;;;;;;5003846;28;20639;-77
2022/10/08 04:25:15;;;;;;;4.10;1.85;;;10.90;99.90;;;;;;5015086;28;20038;-78
2022/10/08 04:27:41;;;;;;;3.38;1.25;;;10.80;99.90;;;;;;5023654;28;20623;-78
2022/10/08 04:30:07;;;;;;;2.20;1.42;;;10.90;99.90;;;;;;5024116;28;20438;-77
2022/10/08 04:32:33;;;;;;;2.33;1.45;;;10.90;99.90;;;;;;5023255;28;20052;-77
2022/10/08 04:34:58;;;;;;;4.07;2.00;;;10.80;99.90;;;;;;4990264;28;20049;-77
2022/10/08 04:37:24;;;;;;;4.13;1.17;;;10.80;99.90;;;;;;5023919;28;20073;-77
2022/10/08 04:39:49;;;;;;;7.93;2.17;;;10.80;99.90;;;;;;5023592;28;20042;-78
2022/10/08 04:42:15;;;;;;;2.50;1.02;;;10.80;99.90;;;;;;5023901;28;20055;-78
2022/10/08 04:44:41;;;;;;;3.25;1.20;;;10.80;99.90;;;;;;5010040;28;20140;-77
2022/10/08 04:47:06;;;;;;;4.93;1.90;;;10.80;99.90;;;;;;5021142;28;20069;-78
2022/10/08 04:49:32;;;;;;;2.67;1.90;;;10.80;99.90;;;;;;5021833;28;20085;-78
2022/10/08 04:51:57;;;;;;;4.10;1.40;;;10.70;99.90;;;;;;5023883;28;20034;-77
2022/10/08 04:54:23;;;;;;;2.55;2.03;;;10.70;99.90;;;;;;5023873;28;20068;-78
2022/10/08 04:56:50;;;;;;;1.92;1.30;;;10.70;99.90;;;;;;5020887;28;20518;-77
2022/10/08 04:59:15;;;;;;;2.92;1.63;;;10.60;99.90;;;;;;5005466;28;20046;-78
2022/10/08 05:01:41;;;;;;;3.80;1.50;;;10.60;99.90;;;;;;5003174;28;20532;-77
2022/10/08 05:04:06;;;;;;;1.83;1.33;;;10.60;99.90;;;;;;5004962;28;20082;-77
2022/10/08 05:06:32;;;;;;;5.25;1.95;;;10.50;99.90;;;;;;5003921;28;20030;-78
2022/10/08 05:09:01;;;;;;;2.38;1.45;;;10.50;99.90;;;;;;5004511;28;20061;-79
2022/10/08 05:11:28;;;;;;;2.28;1.27;;;10.40;99.90;;;;;;4986844;28;20684;-79
2022/10/08 05:13:55;;;;;;;12.25;1.98;;;10.40;99.90;;;;;;5003833;28;20034;-80
2022/10/08 05:16:23;;;;;;;2.53;1.58;;;10.40;99.90;;;;;;5022070;28;20519;-79
2022/10/08 05:18:50;;;;;;;2.92;1.58;;;10.40;99.90;;;;;;5023671;28;20132;-80
2022/10/08 05:21:22;;;;;;;3.15;1.60;;;10.40;99.90;;;;;;5023748;28;20401;-79
2022/10/08 05:23:54;;;;;;;2.55;1.73;;;10.40;99.90;;;;;;5005749;28;20033;-79
2022/10/08 05:26:22;;;;;;;1.10;1.00;;;10.30;99.90;;;;;;5023464;28;20050;-79
2022/10/08 05:28:51;;;;;;;1.45;1.00;;;10.30;99.90;;;;;;5010232;28;20367;-79
2022/10/08 05:31:17;;;;;;;2.35;1.27;;;10.30;99.90;;;;;;5002970;28;20095;-80
2022/10/08 05:33:43;;;;;;;6.65;2.42;;;10.30;99.90;;;;;;4985980;28;20431;-79
2022/10/08 05:36:16;;;;;;;3.55;1.77;;;10.30;99.90;;;;;;5004160;28;20041;-79
2022/10/08 05:38:44;;;;;;;8.10;1.75;;;10.30;99.90;;;;;;4985644;28;20089;-79
2022/10/08 05:41:16;;;;;;;1.55;0.95;;;10.20;99.90;;;;;;5003913;28;20045;-79
2022/10/08 05:43:42;;;;;;;6.65;1.77;;;10.20;99.90;;;;;;5004051;28;20046;-76
2022/10/08 05:46:08;;;;;;;12.45;2.63;;;10.10;99.90;;;;;;5001075;28;20065;-77
2022/10/08 05:48:35;;;;;;;2.00;0.80;;;10.20;99.90;;;;;;5024105;28;20468;-77
2022/10/08 05:51:08;;;;;;;6.25;1.23;;;10.20;99.90;;;;;;5009051;28;20041;-79
2022/10/08 05:53:35;;;;;;;6.57;1.20;;;10.20;99.90;;;;;;4999421;28;20132;-78
2022/10/08 05:56:03;;;;;;;2.03;1.27;;;10.20;99.90;;;;;;5024005;28;20049;-78
2022/10/08 05:58:29;;;;;;;3.78;1.35;;;10.20;99.90;;;;;;5008315;28;20095;-78
2022/10/08 06:01:03;;;;;;;3.92;1.58;;;10.20;99.90;;;;;;5015177;28;20515;-80
2022/10/08 06:03:29;;;;;;;2.83;1.90;;;10.30;99.90;;;;;;5014823;28;20049;-78
2022/10/08 06:06:04;;;;;;;2.33;1.52;;;10.40;99.90;;;;;;5017693;28;20038;-80
2022/10/08 06:08:31;;;;;;;2.67;1.38;;;10.40;99.90;;;;;;5007057;28;20067;-79
2022/10/08 06:10:56;;;;;;;2.53;1.15;;;10.50;99.90;;;;;;5005457;28;20668;-80
2022/10/08 06:13:22;;;;;;;3.40;1.25;;;10.50;99.90;;;;;;5005593;28;20141;-78
2022/10/08 06:16:02;;;;;;;1.45;1.33;;;10.60;99.90;;;;;;4988419;28;20046;-77
2022/10/08 06:18:30;;;;;;;6.55;1.52;;;10.60;99.90;;;;;;5006360;28;20437;-78
2022/10/08 06:20:56;;;;;;;2.67;1.50;;;10.70;99.90;;;;;;5006168;28;20042;-78
2022/10/08 06:23:23;;;;;;;4.10;1.80;;;10.70;99.90;;;;;;5006157;28;20309;-79
2022/10/08 06:25:49;;;;;;;3.15;1.50;;;10.70;99.90;;;;;;5021133;28;20042;-78
2022/10/08 06:28:15;;;;;;;9.88;1.80;;;10.80;99.90;;;;;;5026054;28;20052;-78
2022/10/08 06:30:41;;;;;;;3.35;1.70;;;10.80;99.90;;;;;;5025860;28;20041;-78
2022/10/08 06:33:08;;;;;;;10.00;1.23;;;10.90;99.90;;;;;;5025322;28;20296;-79
2022/10/08 06:35:35;;;;;;;3.83;1.42;;;11.00;99.90;;;;;;5025716;28;20045;-78
2022/10/08 06:38:01;;;;;;;3.85;1.45;;;10.90;99.90;;;;;;5026273;28;20037;-80
2022/10/08 06:40:30;;;;;;;8.43;2.72;;;11.00;99.90;;;;;;5026265;28;20042;-79
2022/10/08 06:42:56;;;;;;;7.10;2.40;;;11.00;99.90;;;;;;5026074;28;20172;-79
2022/10/08 06:45:21;;;;;;;3.45;1.50;;;11.00;99.90;;;;;;5007716;28;20554;-78
2022/10/08 06:47:48;;;;;;;2.08;1.42;;;11.10;99.90;;;;;;5024851;28;20049;-79
2022/10/08 06:50:14;;;;;;;13.60;1.67;;;11.00;99.90;;;;;;5025630;28;20425;-79
2022/10/08 06:52:39;;;;;;;1.58;1.13;;;11.00;99.90;;;;;;5025425;28;20065;-78
2022/10/08 06:55:05;;;;;;;3.55;1.48;;;11.00;99.90;;;;;;5025450;28;20087;-78
2022/10/08 06:57:31;;;;;;;10.35;1.58;;;11.00;99.90;;;;;;5026306;28;20387;-79
2022/10/08 06:59:57;;;;;;;8.73;1.58;;;11.00;99.90;;;;;;5008146;28;20338;-79
2022/10/08 07:02:23;;;;;;;3.70;1.83;;;11.00;99.90;;;;;;5024687;28;20042;-79
2022/10/08 07:04:49;;;;;;;2.95;1.20;;;11.00;99.90;;;;;;5025121;28;20046;-78
2022/10/08 07:07:14;;;;;;;2.70;0.85;;;11.00;99.90;;;;;;5007559;28;20045;-79
2022/10/08 07:09:40;;;;;;;3.40;1.52;;;11.00;99.90;;;;;;5024339;28;20407;-78
2022/10/08 07:12:05;;;;;;;6.80;2.00;;;11.00;99.90;;;;;;5024917;28;20091;-79
2022/10/08 07:14:31;;;;;;;3.35;1.33;;;11.00;99.90;;;;;;5025344;28;20049;-79
2022/10/08 07:16:56;;;;;;;4.45;2.42;;;11.00;99.90;;;;;;5024678;28;20041;-78
2022/10/08 07:19:23;;;;;;;4.13;1.60;;;11.10;99.90;;;;;;5025369;28;20055;-78
2022/10/08 07:21:48;;;;;;;8.75;2.00;;;11.10;99.90;;;;;;5024826;28;20041;-78
2022/10/08 07:24:14;;;;;;;3.05;1.75;;;11.10;99.90;;;;;;5007264;28;20049;-78
2022/10/08 07:26:39;;;;;;;2.08;1.55;;;11.10;99.90;;;;;;5024590;28;20400;-79
2022/10/08 07:29:12;;;;;;;8.98;1.52;;;11.20;99.90;;;;;;5007494;28;20045;-78
2022/10/08 07:31:39;;;;;;;5.32;1.52;;;11.20;99.90;;;;;;5006153;28;20131;-79
2022/10/08 07:34:08;;;;;;;3.05;1.30;;;11.30;99.90;;;;;;5024746;28;20267;-79
2022/10/08 07:36:34;;;;;;;2.78;1.27;;;11.40;99.90;;;;;;5023555;28;20041;-79
2022/10/08 07:39:03;;;;;;;3.05;1.60;;;11.40;99.90;;;;;;5023604;28;20041;-79
2022/10/08 07:41:30;;;;;;;6.63;1.40;;;11.50;99.90;;;;;;5025133;28;20042;-79
2022/10/08 07:43:58;;;;;;;1.65;1.35;;;11.50;99.90;;;;;;5025062;28;20037;-78
2022/10/08 07:46:28;;;;;;;3.00;1.40;;;11.60;99.90;;;;;;5024378;28;20037;-80
2022/10/08 07:48:57;;;;;;;2.70;1.20;;;11.60;99.90;;;;;;5024828;28;20538;-79
2022/10/08 07:51:24;;;;;;;3.35;1.90;;;11.70;99.90;;;;;;5007429;28;20049;-78
2022/10/08 07:53:49;;;;;;;2.85;1.92;;;11.70;99.90;;;;;;5024622;28;20047;-79
2022/10/08 07:56:17;;;;;;;2.22;1.15;;;11.80;99.90;;;;;;5024679;28;20045;-78
2022/10/08 07:58:43;;;;;;;4.97;1.08;;;11.80;99.90;;;;;;5024985;28;20092;-78
2022/10/08 08:01:15;;;;;;;2.65;1.52;;;11.90;99.90;;;;;;5024134;28;20530;-79
2022/10/08 08:03:42;;;;;;;3.88;1.33;;;12.00;99.90;;;;;;5024940;28;20092;-78
2022/10/08 08:06:12;;;;;;;5.50;1.65;;;12.00;99.90;;;;;;5024650;28;20135;-79
2022/10/08 08:08:40;;;;;;;6.32;1.20;;;12.10;99.90;;;;;;5024311;28;20135;-79
2022/10/08 08:11:08;;;;;;;3.08;1.10;;;12.20;99.90;;;;;;5024976;28;20407;-78
2022/10/08 08:13:36;;;;;;;22.90;2.67;;;12.20;99.90;;;;;;5024459;28;20038;-79
2022/10/08 08:16:05;;;;;;;1.98;1.00;;;12.30;99.90;;;;;;5006157;28;20057;-78
2022/10/08 08:18:33;;;;;;;3.35;1.20;;;12.30;99.90;;;;;;5025380;28;20104;-78
2022/10/08 08:21:04;;;;;;;0.80;0.80;;;12.30;99.90;;;;;;5024079;28;20392;-79
2022/10/08 08:23:35;;;;;;;1.95;0.60;;;12.30;99.90;;;;;;5015929;28;20045;-78
2022/10/08 08:26:12;;;;;;;1.95;0.65;;;12.20;99.90;;;;;;5001881;28;20121;-80
2022/10/08 08:28:38;;;;;;;5.28;0.73;;;12.10;99.90;;;;;;5009352;28;20100;-79
2022/10/08 08:31:13;;;;;;;0.82;0.70;;;12.10;99.90;;;;;;5013698;28;20128;-80
2022/10/08 08:33:39;;;;;;;2.20;1.10;;;12.10;99.90;;;;;;5017361;28;20040;-79
2022/10/08 08:36:05;;;;;;;3.80;1.88;;;12.10;99.90;;;;;;5015673;28;20037;-79
2022/10/08 08:38:34;;;;;;;2.15;1.00;;;12.00;99.90;;;;;;5017058;28;20041;-79
2022/10/08 08:41:44;;;;;;;1.55;0.90;;;12.00;99.90;;;;;;5017709;28;20527;-78
2022/10/08 08:44:11;;;;;;;8.40;1.83;;;12.10;99.90;;;;;;5010915;28;20045;-79
2022/10/08 08:46:41;;;;;;;3.15;1.05;;;12.20;99.90;;;;;;5022940;28;20045;-80
2022/10/08 08:49:24;;;;;;;4.85;1.90;;;12.30;99.90;;;;;;5024014;28;20049;-79
2022/10/08 08:51:51;;;;;;;5.75;1.13;;;12.20;99.90;;;;;;5006755;28;20048;-80
2022/10/08 08:54:17;;;;;;;10.88;1.83;;;12.30;99.90;;;;;;5024097;28;20120;-80
2022/10/08 08:56:43;;;;;;;5.45;1.20;;;12.40;99.90;;;;;;5008935;28;20137;-79
2022/10/08 08:59:24;;;;;;;5.88;1.67;;;12.40;99.90;;;;;;5023665;28;20068;-79
2022/10/08 09:01:57;;;;;;;2.50;1.67;;;12.50;99.90;;;;;;5023075;28;20128;-79
2022/10/08 09:04:54;;;;;;;3.05;1.20;;;12.50;99.90;;;;;;5015328;28;20431;-78
2022/10/08 09:07:24;;;;;;;2.70;1.20;;;12.60;99.90;;;;;;5004530;28;20510;-79
2022/10/08 09:09:57;;;;;;;5.10;1.30;;;12.60;99.90;;;;;;5023589;28;20054;-80
2022/10/08 09:12:42;;;;;;;1.50;0.63;;;12.70;99.90;;;;;;5016115;28;20329;-79
2022/10/08 09:15:20;;;;;;;2.22;1.55;;;12.70;99.90;;;;;;5017094;28;20103;-79
2022/10/08 09:17:53;;;;;;;3.10;1.25;;;12.70;99.90;;;;;;5022208;28;20049;-79
2022/10/08 09:20:20;;;;;;;;;;;12.80;99.90;;;;;;5024385;28;20049;-80
2022/10/08 09:22:49;;;;;;;7.20;1.35;;;12.70;99.90;;;;;;5022207;28;19928;-81
2022/10/08 09:25:20;;;;;;;6.88;2.28;;;12.80;99.90;;;;;;5005903;28;20118;-79
2022/10/08 09:27:56;;;;;;;2.78;1.33;;;12.80;99.90;;;;;;5022535;28;20080;-78
2022/10/08 09:30:35;;;;;;;3.97;1.27;;;12.90;99.90;;;;;;5021974;28;20052;-82
2022/10/08 09:33:12;;;;;;;1.52;1.05;;;13.00;99.90;;;;;;5027321;28;20061;-81
2022/10/08 09:35:47;;;;;;;3.08;1.55;;;13.00;99.90;;;;;;5027173;28;20041;-79
2022/10/08 09:38:23;;;;;;;2.45;1.38;;;13.00;99.90;;;;;;5027502;28;20044;-80
2022/10/08 09:41:14;;;;;;;7.50;1.23;;;13.00;99.90;;;;;;5027285;28;20045;-80
2022/10/08 09:43:40;;;;;;;2.67;0.90;;;13.00;99.90;;;;;;5027171;28;20033;-80
2022/10/08 09:46:25;;;;;;;7.63;1.42;;;13.00;99.90;;;;;;5026099;28;20124;-79
2022/10/08 09:48:51;;;;;;;2.80;1.02;;;13.00;99.90;;;;;;5026108;28;20751;-80
2022/10/08 09:51:17;;;;;;;2.83;1.55;;;13.00;99.90;;;;;;5026545;28;20077;-80
2022/10/08 09:53:48;;;;;;;2.85;0.75;;;13.00;99.90;;;;;;5026375;28;20034;-80
2022/10/08 09:56:14;;;;;;;7.50;2.05;;;13.00;99.90;;;;;;5026853;28;20587;-81
2022/10/08 09:58:53;;;;;;;1.70;0.95;;;13.00;99.90;;;;;;5026579;28;20046;-80
2022/10/08 10:01:19;;;;;;;1.95;1.05;;;13.10;99.90;;;;;;5026263;28;20048;-81
2022/10/08 10:03:57;;;;;;;3.72;2.15;;;13.00;99.90;;;;;;5026631;28;20033;-80
2022/10/08 10:06:42;;;;;;;14.05;1.70;;;13.10;99.90;;;;;;5026814;28;20498;-81
2022/10/08 10:09:13;;;;;;;7.20;1.40;;;13.10;99.90;;;;;;5027358;28;20080;-80
2022/10/08 10:11:47;;;;;;;1.67;1.58;;;13.20;99.90;;;;;;5026275;28;20041;-80
2022/10/08 10:14:33;;;;;;;2.17;1.15;;;13.20;99.90;;;;;;5026646;28;20643;-79
2022/10/08 10:17:10;;;;;;;8.52;1.63;;;13.30;99.90;;;;;;5025079;28;20536;-77
2022/10/08 10:19:46;;;;;;;2.28;1.60;;;13.30;99.90;;;;;;5026410;28;20333;-80
2022/10/08 10:22:43;;;;;;;3.10;1.70;;;13.30;99.90;;;;;;5026542;28;20034;-81
2022/10/08 10:25:52;;;;;;;3.22;1.77;;;13.40;99.90;;;;;;5025127;28;20108;-79
2022/10/08 10:28:31;;;;;;;4.95;1.65;;;13.40;99.90;;;;;;4964955;28;20122;-76
2022/10/08 10:31:04;;;;;;;3.30;2.08;;;13.40;99.90;;;;;;5006334;28;20148;-79
2022/10/08 10:33:33;;;;;;;1.02;0.73;;;13.40;99.90;;;;;;5026937;28;20152;-79
2022/10/08 10:36:05;;;;;;;2.60;1.10;;;13.40;99.90;;;;;;5025964;28;20769;-80
2022/10/08 10:38:34;;;;;;;;;;;13.40;99.90;;;;;;5008069;28;20049;-81
2022/10/08 10:41:07;;;;;;;2.22;1.27;;;13.40;99.90;;;;;;5026226;28;19983;-79
2022/10/08 10:44:08;;;;;;;2.55;1.30;;;13.40;99.90;;;;;;5025214;28;20041;-81
2022/10/08 10:46:55;;;;;;;2.08;0.85;;;13.40;99.90;;;;;;5024125;28;20038;-79
2022/10/08 10:49:23;;;;;;;4.05;1.88;;;13.50;99.90;;;;;;5021645;28;20049;-79
2022/10/08 10:52:11;;;;;;;2.80;1.67;;;13.40;99.90;;;;;;5013835;28;20500;-78
2022/10/08 10:54:39;;;;;;;4.40;1.17;;;13.40;99.90;;;;;;5007066;28;20087;-79
2022/10/08 10:57:22;;;;;;;16.88;2.42;;;13.40;99.90;;;;;;5021585;28;20072;-78
2022/10/08 10:59:55;;;;;;;;;;;13.40;99.90;;;;;;5025097;28;20053;-81
2022/10/08 11:02:52;;;;;;;5.00;1.98;;;13.40;99.90;;;;;;5024555;28;19917;-79
2022/10/08 11:05:31;;;;;;;2.45;1.13;;;13.40;99.90;;;;;;5019289;28;20537;-78
2022/10/08 11:08:45;;;;;;;4.70;1.00;;;13.50;99.90;;;;;;5007572;28;20073;-79
2022/10/08 11:11:27;;;;;;;3.05;1.58;;;13.50;99.90;;;;;;5010475;28;20121;-78
2022/10/08 11:14:21;;;;;;;3.53;1.38;;;13.50;99.90;;;;;;5017434;28;20549;-80
2022/10/08 11:17:19;;;;;;;4.43;1.30;;;13.50;99.90;;;;;;5020084;28;20124;-79
2022/10/08 11:20:06;;;;;;;6.25;2.58;;;13.60;99.90;;;;;;5024754;28;20080;-78
2022/10/08 11:22:43;;;;;;;2.95;1.65;;;13.50;99.90;;;;;;5026232;28;20059;-80
2022/10/08 11:25:39;;;;;;;1.80;1.10;;;13.50;99.90;;;;;;5026116;28;20376;-78
2022/10/08 11:28:38;;;;;;;2.15;1.23;;;13.50;99.90;;;;;;5026098;28;20068;-80
2022/10/08 11:31:22;;;;;;;1.98;1.33;;;13.40;99.90;;;;;;5006547;28;20083;-81
2022/10/08 11:33:49;;;;;;;2.22;1.17;;;13.50;99.90;;;;;;5023202;28;20406;-82
2022/10/08 11:36:38;;;;;;;1.70;1.15;;;13.40;99.90;;;;;;5027990;28;20068;-81
2022/10/08 11:39:19;;;;;;;3.58;1.60;;;13.40;99.90;;;;;;5026562;28;20044;-79
2022/10/08 11:41:58;;;;;;;3.00;1.00;;;13.50;99.90;;;;;;5008314;28;20099;-81
2022/10/08 11:44:25;;;;;;;2.22;1.27;;;13.60;99.90;;;;;;5004683;28;20408;-79
2022/10/08 11:46:51;;;;;;;5.35;1.55;;;13.70;99.90;;;;;;5011902;28;20080;-79
2022/10/08 11:49:19;;;;;;;5.60;1.42;;;13.70;99.90;;;;;;5006301;28;20488;-77
2022/10/08 11:51:48;;;;;;;2.05;1.13;;;13.60;99.90;;;;;;5023084;28;20037;-78
2022/10/08 11:54:17;;;;;;;2.78;1.30;;;13.70;99.90;;;;;;5024167;28;20038;-75
2022/10/08 11:56:46;;;;;;;2.28;0.93;;;13.70;99.90;;;;;;5036602;28;20487;-76
2022/10/08 11:59:33;;;;;;;4.70;1.83;;;13.70;99.90;;;;;;5023562;28;20108;-76
2022/10/08 12:02:02;;;;;;;2.75;1.70;;;13.80;99.90;;;;;;5019292;28;20049;-75
2022/10/08 12:04:38;;;;;;;5.20;1.80;;;13.90;99.90;;;;;;5006895;28;20045;-79
2022/10/08 12:07:20;;;;;;;8.38;1.25;;;14.10;99.90;;;;;;5024109;28;20065;-77
2022/10/08 12:10:18;;;;;;;1.83;1.17;;;14.10;99.90;;;;;;5023516;28;20053;-76
2022/10/08 12:13:00;;;;;;;2.80;1.15;;;14.10;99.90;;;;;;4989985;28;20045;-74
2022/10/08 12:15:32;;;;;;;1.27;0.77;;;14.20;99.90;;;;;;5024085;28;20052;-75
2022/10/08 12:18:00;;;;;;;7.20;1.20;;;14.20;99.90;;;;;;5021343;28;20042;-75
2022/10/08 12:20:31;;;;;;;1.98;1.15;;;14.10;99.90;;;;;;5009796;28;20488;-75
2022/10/08 12:22:59;;;;;;;5.85;0.90;;;14.00;99.90;;;;;;4997301;28;20711;-76
2022/10/08 12:25:32;;;;;;;1.30;0.93;;;13.90;99.90;;;;;;5001395;28;20041;-75
2022/10/08 12:28:19;;;;;;;2.03;1.05;;;13.90;99.90;;;;;;5022370;28;20041;-76
2022/10/08 12:30:57;;;;;;;2.45;1.17;;;13.80;99.90;;;;;;5015047;28;20128;-74
2022/10/08 12:33:23;;;;;;;2.33;1.27;;;13.80;99.90;;;;;;5013939;28;20410;-75
2022/10/08 12:36:04;;;;;;;1.42;0.75;;;13.70;99.90;;;;;;5022829;28;20041;-76
2022/10/08 12:39:03;;;;;;;3.30;1.20;;;13.70;99.90;;;;;;5005343;28;20050;-78
2022/10/08 12:41:53;;;;;;;11.82;2.08;;;13.60;99.90;;;;;;5001812;28;20077;-75
2022/10/08 12:44:40;;;;;;;9.02;2.35;;;13.60;99.90;;;;;;4998418;28;20583;-79
2022/10/08 12:47:37;;;;;;;2.72;1.55;;;13.60;99.90;;;;;;5011431;28;20050;-76
2022/10/08 12:50:36;;;;;;;4.55;1.77;;;13.60;99.90;;;;;;4976681;28;20079;-75
2022/10/08 12:53:04;;;;;;;1.77;1.13;;;13.60;99.90;;;;;;5005005;28;20472;-76
2022/10/08 12:55:35;;;;;;;2.75;1.80;;;13.60;99.90;;;;;;4997772;28;20120;-74
2022/10/08 12:58:01;;;;;;;5.05;1.83;;;13.60;99.90;;;;;;5000800;28;20076;-76
2022/10/08 13:00:32;;;;;;;1.10;1.00;;;13.70;99.90;;;;;;5004036;28;20037;-76
2022/10/08 13:03:04;;;;;;;3.17;1.40;;;13.80;99.90;;;;;;4989418;28;20103;-76
2022/10/08 13:05:34;;;;;;;12.98;1.50;;;13.90;99.90;;;;;;5023481;28;20044;-74
2022/10/08 13:08:17;;;;;;;2.75;1.23;;;13.90;99.90;;;;;;4997826;28;20586;-75
2022/10/08 13:10:43;;;;;;;1.27;0.90;;;14.10;99.90;;;;;;5002028;28;20685;-77
2022/10/08 13:13:36;;;;;;;3.20;1.35;;;14.10;99.90;;;;;;5023619;28;20077;-75
2022/10/08 13:16:07;;;;;;;4.45;1.10;;;14.10;99.90;;;;;;5004337;28;20507;-77
2022/10/08 13:18:35;;;;;;;2.55;1.10;;;14.10;99.90;;;;;;5021157;28;20183;-77